createdAt,value
2024-01-07T00:00:31.282Z,61.59
2024-01-07T00:02:59.232Z,61.27
2024-01-07T00:05:27.094Z,60.95
2024-01-07T00:07:56.266Z,60.45
2024-01-07T00:10:24.300Z,60.25
2024-01-07T00:12:53.457Z,60.54
2024-01-07T00:15:21.419Z,61.15
2024-01-07T00:17:49.343Z,60.73
2024-01-07T00:20:17.287Z,61.26
2024-01-07T00:22:45.064Z,60.91
2024-01-07T00:25:14.347Z,61.10
2024-01-07T00:27:42.199Z,61.45
2024-01-07T00:30:10.434Z,60.85
2024-01-07T00:32:38.304Z,60.79
2024-01-07T00:35:06.754Z,60.89
2024-01-07T00:37:36.070Z,60.84
2024-01-07T00:40:04.063Z,60.75
2024-01-07T00:42:33.310Z,60.04
2024-01-07T00:45:01.129Z,60.30
2024-01-07T00:47:28.937Z,60.33
2024-01-07T00:49:56.924Z,60.52
2024-01-07T00:52:24.712Z,60.83
2024-01-07T00:54:52.531Z,60.47
2024-01-07T00:57:20.288Z,60.74
2024-01-07T00:59:49.399Z,60.45
2024-01-07T01:02:17.189Z,60.48
2024-01-07T01:04:45.060Z,60.30
2024-01-07T01:07:13.105Z,60.71
2024-01-07T01:09:40.912Z,60.40
2024-01-07T01:12:08.866Z,60.89
2024-01-07T01:14:36.623Z,60.68
2024-01-07T01:17:06.438Z,60.10
2024-01-07T01:19:34.329Z,60.29
2024-01-07T01:22:02.294Z,60.23
2024-01-07T01:24:30.549Z,60.69
2024-01-07T01:26:58.378Z,60.34
2024-01-07T01:29:26.364Z,60.76
2024-01-07T01:31:54.206Z,61.23
2024-01-07T01:34:23.411Z,61.07
2024-01-07T01:36:52.039Z,60.88
2024-01-07T01:39:19.839Z,60.53
2024-01-07T01:41:47.639Z,60.89
2024-01-07T01:44:15.523Z,60.49
2024-01-07T01:46:43.380Z,60.71
2024-01-07T01:49:11.254Z,60.28
2024-01-07T01:51:40.618Z,61.05
2024-01-07T01:54:08.676Z,60.81
2024-01-07T01:56:36.696Z,61.29
2024-01-07T01:59:04.617Z,61.03
2024-01-07T02:01:33.707Z,61.13
2024-01-07T02:04:01.594Z,61.29
2024-01-07T02:06:29.649Z,61.29
2024-01-07T02:08:58.941Z,61.23
2024-01-07T02:11:26.708Z,61.14
2024-01-07T02:13:54.840Z,60.91
2024-01-07T02:16:22.661Z,61.34
2024-01-07T02:18:50.650Z,61.54
2024-01-07T02:21:18.452Z,61.46
2024-01-07T02:23:46.257Z,61.71
2024-01-07T02:26:15.376Z,61.76
2024-01-07T02:28:43.162Z,61.77
2024-01-07T02:31:10.980Z,61.98
2024-01-07T02:33:38.881Z,61.98
2024-01-07T02:36:07.125Z,61.61
2024-01-07T02:38:34.909Z,61.62
2024-01-07T02:41:02.714Z,61.67
2024-01-07T02:43:31.864Z,61.75
2024-01-07T02:45:59.704Z,61.70
2024-01-07T02:48:27.580Z,61.91
2024-01-07T02:50:55.410Z,61.97
2024-01-07T02:53:23.185Z,62.37
2024-01-07T02:55:50.932Z,61.92
2024-01-07T02:58:18.714Z,62.32
2024-01-07T03:00:47.867Z,62.31
2024-01-07T03:03:15.784Z,62.17
2024-01-07T03:05:43.708Z,62.31
2024-01-07T03:08:11.516Z,62.39
2024-01-07T03:10:39.251Z,62.72
2024-01-07T03:13:07.782Z,62.93
2024-01-07T03:15:35.610Z,62.43
2024-01-07T03:18:05.177Z,62.66
2024-01-07T03:20:32.946Z,62.96
2024-01-07T03:23:02.250Z,62.64
2024-01-07T03:25:30.006Z,62.97
2024-01-07T03:27:57.785Z,62.99
2024-01-07T03:30:25.768Z,62.76
2024-01-07T03:32:53.837Z,62.83
2024-01-07T03:35:25.253Z,62.99
2024-01-07T03:37:53.086Z,62.62
2024-01-07T03:40:21.121Z,62.71
2024-01-07T03:42:48.912Z,62.54
2024-01-07T03:45:16.737Z,62.85
2024-01-07T03:47:44.593Z,62.60
2024-01-07T03:50:12.472Z,62.32
2024-01-07T03:52:41.626Z,62.59
2024-01-07T03:55:09.869Z,62.62
2024-01-07T03:57:38.004Z,62.36
2024-01-07T04:00:06.978Z,62.62
2024-01-07T04:02:34.684Z,62.77
2024-01-07T04:05:02.485Z,62.95
2024-01-07T04:07:30.245Z,62.47
2024-01-07T04:09:59.637Z,62.53
2024-01-07T04:12:27.438Z,62.52
2024-01-07T04:14:55.193Z,62.23
2024-01-07T04:17:22.982Z,62.56
2024-01-07T04:19:50.845Z,62.31
2024-01-07T04:22:18.645Z,62.38
2024-01-07T04:24:46.435Z,62.33
2024-01-07T04:27:15.549Z,62.57
2024-01-07T04:29:43.276Z,62.54
2024-01-07T04:32:11.133Z,62.14
2024-01-07T04:34:39.000Z,62.20
2024-01-07T04:37:07.054Z,62.55
2024-01-07T04:39:34.925Z,62.09
2024-01-07T04:42:02.683Z,62.03
2024-01-07T04:44:31.839Z,61.98
2024-01-07T04:46:59.632Z,61.58
2024-01-07T04:49:27.458Z,62.25
2024-01-07T04:51:55.361Z,61.91
2024-01-07T04:54:23.494Z,62.32
2024-01-07T04:56:51.304Z,62.21
2024-01-07T04:59:19.054Z,62.33
2024-01-07T05:01:48.178Z,62.38
2024-01-07T05:04:16.161Z,62.19
2024-01-07T05:06:46.657Z,62.32
2024-01-07T05:09:14.489Z,62.03
2024-01-07T05:11:42.307Z,62.06
2024-01-07T05:14:10.107Z,61.77
2024-01-07T05:16:37.902Z,61.95
2024-01-07T05:19:07.092Z,62.29
2024-01-07T05:21:34.970Z,61.98
2024-01-07T05:24:02.894Z,61.97
2024-01-07T05:26:30.744Z,61.54
2024-01-07T05:28:58.511Z,61.87
2024-01-07T05:31:26.451Z,61.97
2024-01-07T05:33:54.447Z,61.74
2024-01-07T05:36:23.868Z,61.53
2024-01-07T05:38:51.584Z,61.66
2024-01-07T05:41:19.339Z,61.38
2024-01-07T05:43:47.129Z,61.20
2024-01-07T05:46:15.029Z,61.17
2024-01-07T05:48:46.915Z,60.99
2024-01-07T05:51:15.837Z,61.00
2024-01-07T05:53:46.027Z,61.21
2024-01-07T05:56:14.182Z,61.33
2024-01-07T05:58:42.172Z,61.29
2024-01-07T06:01:10.990Z,61.20
2024-01-07T06:03:38.946Z,60.99
2024-01-07T06:06:06.940Z,60.85
2024-01-07T06:08:34.701Z,59.85
2024-01-07T06:11:03.997Z,59.55
2024-01-07T06:13:31.775Z,59.20
2024-01-07T06:15:59.590Z,58.44
2024-01-07T06:18:27.580Z,58.56
2024-01-07T06:20:55.406Z,57.96
2024-01-07T06:23:23.188Z,57.07
2024-01-07T06:25:51.003Z,56.67
2024-01-07T06:28:20.144Z,56.93
2024-01-07T06:30:47.975Z,57.15
2024-01-07T06:33:16.249Z,57.35
2024-01-07T06:35:44.111Z,58.30
2024-01-07T06:38:11.901Z,59.00
2024-01-07T06:40:39.712Z,59.29
2024-01-07T06:43:07.599Z,59.23
2024-01-07T06:45:36.864Z,59.83
2024-01-07T06:48:04.953Z,59.53
2024-01-07T06:50:32.743Z,59.53
2024-01-07T06:53:00.524Z,59.85
2024-01-07T06:55:28.308Z,60.22
2024-01-07T06:57:56.116Z,60.04
2024-01-07T07:00:24.485Z,59.72
2024-01-07T07:02:54.239Z,59.90
2024-01-07T07:05:22.081Z,60.00
2024-01-07T07:07:52.410Z,59.96
2024-01-07T07:10:21.688Z,60.35
2024-01-07T07:12:49.570Z,60.29
2024-01-07T07:15:17.370Z,60.18
2024-01-07T07:17:45.373Z,60.04
2024-01-07T07:20:15.073Z,59.75
2024-01-07T07:22:42.846Z,59.93
2024-01-07T07:25:10.842Z,60.35
2024-01-07T07:27:39.312Z,60.22
2024-01-07T07:30:08.538Z,60.21
2024-01-07T07:32:36.813Z,60.86
2024-01-07T07:35:05.101Z,60.28
2024-01-07T07:37:34.237Z,60.42
2024-01-07T07:40:02.076Z,60.52
2024-01-07T07:42:31.539Z,60.20
2024-01-07T07:44:59.424Z,60.59
2024-01-07T07:47:27.207Z,60.47
2024-01-07T07:49:55.039Z,60.51
2024-01-07T07:52:24.680Z,60.54
2024-01-07T07:54:54.052Z,60.68
2024-01-07T07:57:22.380Z,60.38
2024-01-07T07:59:50.518Z,60.36
2024-01-07T08:02:18.553Z,60.66
2024-01-07T08:04:46.334Z,60.08
2024-01-07T08:07:14.215Z,60.23
2024-01-07T08:09:42.029Z,60.48
2024-01-07T08:12:12.938Z,60.40
2024-01-07T08:14:42.185Z,60.46
2024-01-07T08:17:09.977Z,60.27
2024-01-07T08:19:38.459Z,60.25
2024-01-07T08:22:06.614Z,60.24
2024-01-07T08:24:34.523Z,60.21
2024-01-07T08:27:02.346Z,60.15
2024-01-07T08:29:31.531Z,60.33
2024-01-07T08:31:59.639Z,59.57
2024-01-07T08:34:28.150Z,58.95
2024-01-07T08:36:56.146Z,58.29
2024-01-07T08:39:24.073Z,57.89
2024-01-07T08:41:53.347Z,57.35
2024-01-07T08:44:21.131Z,56.99
2024-01-07T08:46:50.298Z,56.37
2024-01-07T08:49:18.304Z,56.37
2024-01-07T08:51:46.215Z,55.85
2024-01-07T08:54:13.982Z,54.96
2024-01-07T08:56:41.755Z,55.47
2024-01-07T08:59:09.545Z,55.54
2024-01-07T09:01:37.376Z,55.55
2024-01-07T09:04:06.663Z,55.73
2024-01-07T09:06:34.475Z,56.42
2024-01-07T09:09:02.217Z,56.81
2024-01-07T09:11:30.021Z,56.87
2024-01-07T09:13:57.807Z,56.98
2024-01-07T09:16:25.677Z,57.34
2024-01-07T09:18:53.723Z,57.60
2024-01-07T09:21:24.175Z,57.66
2024-01-07T09:23:52.004Z,57.81
2024-01-07T09:26:19.868Z,57.88
2024-01-07T09:28:47.616Z,57.83
2024-01-07T09:31:16.761Z,58.22
2024-01-07T09:33:44.813Z,58.55
2024-01-07T09:36:21.258Z,58.82
2024-01-07T09:38:58.437Z,58.48
2024-01-07T09:41:26.750Z,58.37
2024-01-07T09:43:55.154Z,58.73
2024-01-07T09:46:24.411Z,58.69
2024-01-07T09:48:52.763Z,59.02
2024-01-07T09:51:24.822Z,58.76
2024-01-07T09:53:59.217Z,58.69
2024-01-07T09:56:36.500Z,58.73
2024-01-07T09:59:04.312Z,58.82
2024-01-07T10:01:33.779Z,58.37
2024-01-07T10:04:01.729Z,59.35
2024-01-07T10:06:29.639Z,58.71
2024-01-07T10:08:57.639Z,58.97
2024-01-07T10:11:25.607Z,58.23
2024-01-07T10:13:55.587Z,57.16
2024-01-07T10:16:23.363Z,56.61
2024-01-07T10:18:51.216Z,56.36
2024-01-07T10:21:19.022Z,55.89
2024-01-07T10:23:46.886Z,55.58
2024-01-07T10:26:23.453Z,55.37
2024-01-07T10:28:56.987Z,54.90
2024-01-07T10:31:24.855Z,55.70
2024-01-07T10:33:52.737Z,56.21
2024-01-07T10:36:23.735Z,56.46
2024-01-07T10:38:52.073Z,56.93
2024-01-07T10:41:21.132Z,56.61
2024-01-07T10:43:50.043Z,56.73
2024-01-07T10:46:19.814Z,56.96
2024-01-07T10:48:55.743Z,57.30
2024-01-07T10:51:24.314Z,57.43
2024-01-07T10:53:55.245Z,58.04
2024-01-07T10:56:25.862Z,58.30
2024-01-07T10:58:55.547Z,58.37
2024-01-07T11:01:24.982Z,58.19
2024-01-07T11:04:04.213Z,58.07
2024-01-07T11:06:41.309Z,57.52
2024-01-07T11:09:14.915Z,57.94
2024-01-07T11:11:43.556Z,57.98
2024-01-07T11:14:36.754Z,58.34
2024-01-07T11:17:06.363Z,58.20
2024-01-07T11:19:34.289Z,57.82
2024-01-07T11:22:26.090Z,58.19
2024-01-07T11:24:54.222Z,58.83
2024-01-07T11:27:23.739Z,58.54
2024-01-07T11:29:58.328Z,58.45
2024-01-07T11:32:31.417Z,58.65
2024-01-07T11:35:00.603Z,57.81
2024-01-07T11:37:28.862Z,57.71
2024-01-07T11:39:59.319Z,57.02
2024-01-07T11:42:27.428Z,56.36
2024-01-07T11:44:56.564Z,56.20
2024-01-07T11:47:25.758Z,55.23
2024-01-07T11:49:55.802Z,54.49
2024-01-07T11:52:24.202Z,54.62
2024-01-07T11:54:52.273Z,53.89
2024-01-07T11:57:20.183Z,53.28
2024-01-07T11:59:48.673Z,53.51
2024-01-07T12:02:18.336Z,53.64
2024-01-07T12:04:46.194Z,54.35
2024-01-07T12:07:15.779Z,55.58
2024-01-07T12:09:43.916Z,55.64
2024-01-07T12:12:11.829Z,55.87
2024-01-07T12:14:39.737Z,55.78
2024-01-07T12:17:08.610Z,56.76
2024-01-07T12:19:37.895Z,56.87
2024-01-07T12:22:08.092Z,56.58
2024-01-07T12:24:37.330Z,56.85
2024-01-07T12:27:08.906Z,56.78
2024-01-07T12:29:36.703Z,57.23
2024-01-07T12:32:04.605Z,57.12
2024-01-07T12:34:32.883Z,56.76
2024-01-07T12:37:03.285Z,56.45
2024-01-07T12:39:31.333Z,57.05
2024-01-07T12:42:00.500Z,56.93
2024-01-07T12:44:30.006Z,57.06
2024-01-07T12:46:57.849Z,57.15
2024-01-07T12:49:25.770Z,56.78
2024-01-07T12:51:53.649Z,56.68
2024-01-07T12:54:22.797Z,56.84
2024-01-07T12:56:50.512Z,56.21
2024-01-07T12:59:19.861Z,55.76
2024-01-07T13:01:47.873Z,56.29
2024-01-07T13:04:15.943Z,56.57
2024-01-07T13:06:44.035Z,56.08
2024-01-07T13:09:11.936Z,55.20
2024-01-07T13:11:40.447Z,54.83
2024-01-07T13:14:08.557Z,54.09
2024-01-07T13:16:37.826Z,53.34
2024-01-07T13:19:06.352Z,52.72
2024-01-07T13:21:37.554Z,52.11
2024-01-07T13:24:07.785Z,52.46
2024-01-07T13:26:35.622Z,52.02
2024-01-07T13:29:04.796Z,51.86
2024-01-07T13:31:33.559Z,51.31
2024-01-07T13:34:03.062Z,51.13
2024-01-07T13:36:31.113Z,51.21
2024-01-07T13:38:58.934Z,50.76
2024-01-07T13:41:29.841Z,49.60
2024-01-07T13:43:58.586Z,49.49
2024-01-07T13:46:27.881Z,49.58
2024-01-07T13:48:56.550Z,49.64
2024-01-07T13:51:27.055Z,49.61
2024-01-07T13:53:54.838Z,49.58
2024-01-07T13:56:22.652Z,48.43
2024-01-07T13:58:51.189Z,48.94
2024-01-07T14:01:19.154Z,48.87
2024-01-07T14:03:47.074Z,48.95
2024-01-07T14:06:15.032Z,48.77
2024-01-07T14:08:44.197Z,48.37
2024-01-07T14:11:11.982Z,48.15
2024-01-07T14:13:39.915Z,48.25
2024-01-07T14:16:08.733Z,48.33
2024-01-07T14:18:36.581Z,48.29
2024-01-07T14:21:04.756Z,47.56
2024-01-07T14:23:33.306Z,48.55
2024-01-07T14:26:02.537Z,48.73
2024-01-07T14:28:30.295Z,48.48
2024-01-07T14:30:59.161Z,49.25
2024-01-07T14:33:27.252Z,49.96
2024-01-07T14:35:55.212Z,49.55
2024-01-07T14:38:23.098Z,49.59
2024-01-07T14:40:52.992Z,49.09
2024-01-07T14:43:22.202Z,47.47
2024-01-07T14:45:50.122Z,47.59
2024-01-07T14:48:18.104Z,46.88
2024-01-07T14:50:49.054Z,47.32
2024-01-07T14:53:17.462Z,46.36
2024-01-07T14:55:45.230Z,46.29
2024-01-07T14:58:13.225Z,46.43
2024-01-07T15:00:42.529Z,45.93
2024-01-07T15:03:10.481Z,46.50
2024-01-07T15:05:38.392Z,46.88
2024-01-07T15:08:06.411Z,47.90
2024-01-07T15:10:34.651Z,48.38
2024-01-07T15:13:07.337Z,47.96
2024-01-07T15:15:44.073Z,48.08
2024-01-07T15:18:13.151Z,47.28
2024-01-07T15:20:41.044Z,47.00
2024-01-07T15:23:08.818Z,46.48
2024-01-07T15:25:36.660Z,46.76
2024-01-07T15:28:04.954Z,46.24
2024-01-07T15:30:33.025Z,46.69
2024-01-07T15:33:02.354Z,47.23
2024-01-07T15:35:30.244Z,47.21
2024-01-07T15:37:58.738Z,47.71
2024-01-07T15:40:27.990Z,48.02
2024-01-07T15:42:55.944Z,48.22
2024-01-07T15:45:23.777Z,48.30
2024-01-07T15:47:51.656Z,48.78
2024-01-07T15:50:20.921Z,49.10
2024-01-07T15:52:50.537Z,47.88
2024-01-07T15:55:19.555Z,48.59
2024-01-07T15:57:47.526Z,48.26
2024-01-07T16:00:16.201Z,48.82
2024-01-07T16:02:44.003Z,48.67
2024-01-07T16:05:11.999Z,48.76
2024-01-07T16:07:41.262Z,49.10
2024-01-07T16:10:09.709Z,48.88
2024-01-07T16:12:37.908Z,49.11
2024-01-07T16:15:07.029Z,48.75
2024-01-07T16:17:34.844Z,48.81
2024-01-07T16:20:02.791Z,48.72
2024-01-07T16:22:31.500Z,47.97
2024-01-07T16:25:00.682Z,47.86
2024-01-07T16:27:29.758Z,48.26
2024-01-07T16:29:58.169Z,47.86
2024-01-07T16:32:27.295Z,48.38
2024-01-07T16:34:58.181Z,48.60
2024-01-07T16:37:26.116Z,48.49
2024-01-07T16:39:54.011Z,48.42
2024-01-07T16:42:23.172Z,48.67
2024-01-07T16:44:51.518Z,48.69
2024-01-07T16:47:19.318Z,48.40
2024-01-07T16:52:17.841Z,48.42
2024-01-07T16:54:47.686Z,48.50
2024-01-07T16:57:15.782Z,48.50
2024-01-07T16:59:45.826Z,48.56
2024-01-07T17:02:13.649Z,48.33
2024-01-07T17:04:41.572Z,48.30
2024-01-07T17:07:09.596Z,49.02
2024-01-07T17:09:37.366Z,48.68
2024-01-07T17:12:06.100Z,48.48
2024-01-07T17:14:36.576Z,49.31
2024-01-07T17:17:06.064Z,49.58
2024-01-07T17:19:34.138Z,49.62
2024-01-07T17:22:01.938Z,49.36
2024-01-07T17:24:30.461Z,49.41
2024-01-07T17:26:59.863Z,49.25
2024-01-07T17:29:31.600Z,49.27
2024-01-07T17:31:59.452Z,49.13
2024-01-07T17:34:28.745Z,49.19
2024-01-07T17:36:56.537Z,49.09
2024-01-07T17:39:24.384Z,49.01
2024-01-07T17:41:52.357Z,49.30
2024-01-07T17:44:20.312Z,49.29
2024-01-07T17:46:48.155Z,49.39
2024-01-07T17:49:16.030Z,49.43
2024-01-07T17:51:46.001Z,49.72
2024-01-07T17:54:14.040Z,49.53
2024-01-07T17:56:44.372Z,49.56
2024-01-07T17:59:13.144Z,49.47
2024-01-07T18:01:41.130Z,49.39
2024-01-07T18:04:08.945Z,50.01
2024-01-07T18:06:36.717Z,49.62
2024-01-07T18:09:06.701Z,49.49
2024-01-07T18:11:35.074Z,49.61
2024-01-07T18:14:03.002Z,49.65
2024-01-07T18:16:30.958Z,49.46
2024-01-07T18:18:58.795Z,49.48
2024-01-07T18:21:30.968Z,49.78
2024-01-07T18:23:58.885Z,50.18
2024-01-07T18:26:29.309Z,50.15
2024-01-07T18:28:57.213Z,50.31
2024-01-07T18:31:25.844Z,49.58
2024-01-07T18:33:53.875Z,49.88
2024-01-07T18:36:23.368Z,49.84
2024-01-07T18:38:50.202Z,49.86
2024-01-07T18:41:23.639Z,49.50
2024-01-07T18:43:53.925Z,49.41
2024-01-07T18:46:21.745Z,49.29
2024-01-07T18:48:49.813Z,48.66
2024-01-07T18:51:17.622Z,48.33
2024-01-07T18:53:45.386Z,47.96
2024-01-07T18:56:13.334Z,47.89
2024-01-07T18:58:41.200Z,47.89
2024-01-07T19:01:10.367Z,47.87
2024-01-07T19:03:38.199Z,48.40
2024-01-07T19:06:06.324Z,48.61
2024-01-07T19:08:34.295Z,48.64
2024-01-07T19:11:04.586Z,48.58
2024-01-07T19:13:34.040Z,48.97
2024-01-07T19:16:01.996Z,49.26
2024-01-07T19:18:33.940Z,49.42
2024-01-07T19:21:01.779Z,49.56
2024-01-07T19:23:29.693Z,49.84
2024-01-07T19:25:57.524Z,49.65
2024-01-07T19:28:25.295Z,49.50
2024-01-07T19:30:54.561Z,49.90
2024-01-07T19:33:22.912Z,49.89
2024-01-07T19:35:53.458Z,50.14
2024-01-07T19:38:21.382Z,49.92
2024-01-07T19:40:49.830Z,50.53
2024-01-07T19:43:17.781Z,50.96
2024-01-07T19:45:46.616Z,50.40
2024-01-07T19:48:14.635Z,50.88
2024-01-07T19:50:46.477Z,50.19
2024-01-07T19:53:23.958Z,50.41
2024-01-07T19:55:59.866Z,50.16
2024-01-07T19:58:28.023Z,50.73
2024-01-07T20:00:55.803Z,50.70
2024-01-07T20:03:25.655Z,50.25
2024-01-07T20:05:53.842Z,50.97
2024-01-07T20:08:24.265Z,51.16
2024-01-07T20:10:53.769Z,51.11
2024-01-07T20:13:23.695Z,51.29
2024-01-07T20:15:51.694Z,51.39
2024-01-07T20:18:19.714Z,51.31
2024-01-07T20:20:48.049Z,50.90
2024-01-07T20:23:15.862Z,51.47
2024-01-07T20:25:47.458Z,50.97
2024-01-07T20:28:15.444Z,51.12
2024-01-07T20:30:43.686Z,50.71
2024-01-07T20:33:13.276Z,51.32
2024-01-07T20:35:41.588Z,51.60
2024-01-07T20:38:10.208Z,51.47
2024-01-07T20:40:38.519Z,51.87
2024-01-07T20:43:11.225Z,51.55
2024-01-07T20:45:40.016Z,51.44
2024-01-07T20:48:08.632Z,51.79
2024-01-07T20:50:38.650Z,51.70
2024-01-07T20:53:06.851Z,51.87
2024-01-07T20:55:34.630Z,51.89
2024-01-07T20:58:03.975Z,51.99
2024-01-07T21:00:33.531Z,51.67
2024-01-07T21:03:01.731Z,51.84
2024-01-07T21:05:29.834Z,51.40
2024-01-07T21:07:57.873Z,51.55
2024-01-07T21:10:25.723Z,52.29
2024-01-07T21:12:54.948Z,51.59
2024-01-07T21:15:23.941Z,51.94
2024-01-07T21:17:53.315Z,51.91
2024-01-07T21:20:21.294Z,52.25
2024-01-07T21:22:49.198Z,51.92
2024-01-07T21:25:17.664Z,52.16
2024-01-07T21:27:45.726Z,52.17
2024-01-07T21:30:14.414Z,51.81
2024-01-07T21:32:42.918Z,51.84
2024-01-07T21:35:12.621Z,51.92
2024-01-07T21:37:40.468Z,52.08
2024-01-07T21:40:09.324Z,52.52
2024-01-07T21:42:38.401Z,52.69
2024-01-07T21:45:06.922Z,52.71
2024-01-07T21:47:34.825Z,52.83
2024-01-07T21:50:03.043Z,52.41
2024-01-07T21:52:32.642Z,52.72
2024-01-07T21:55:00.568Z,52.95
2024-01-07T21:57:28.612Z,52.58
2024-01-07T21:59:56.402Z,52.23
2024-01-07T22:02:24.255Z,52.31
2024-01-07T22:04:52.246Z,52.50
2024-01-07T22:07:21.859Z,52.41
2024-01-07T22:09:50.990Z,52.55
2024-01-07T22:12:18.798Z,52.44
2024-01-07T22:14:46.577Z,52.66
2024-01-07T22:17:14.395Z,52.20
2024-01-07T22:19:42.214Z,52.34
2024-01-07T22:22:10.227Z,52.64
2024-01-07T22:24:38.022Z,52.42
2024-01-07T22:27:07.346Z,52.62
2024-01-07T22:29:35.140Z,53.19
2024-01-07T22:32:04.202Z,52.75
2024-01-07T22:34:32.207Z,52.65
2024-01-07T22:37:00.035Z,53.01
2024-01-07T22:39:29.109Z,53.06
2024-01-07T22:41:56.970Z,52.68
2024-01-07T22:44:26.190Z,52.54
2024-01-07T22:46:54.073Z,53.07
2024-01-07T22:49:22.647Z,53.43
2024-01-07T22:51:50.906Z,52.62
2024-01-07T22:54:18.745Z,53.19
2024-01-07T22:56:47.277Z,52.64
2024-01-07T22:59:16.181Z,52.37
2024-01-07T23:01:45.476Z,52.17
2024-01-07T23:04:13.479Z,52.04
2024-01-07T23:06:41.588Z,51.95
2024-01-07T23:09:12.029Z,52.06
2024-01-07T23:11:40.105Z,52.73
2024-01-07T23:14:08.022Z,52.70
2024-01-07T23:16:35.896Z,52.23
2024-01-07T23:19:05.740Z,51.40
2024-01-07T23:21:33.653Z,51.34
2024-01-07T23:24:02.327Z,51.17
2024-01-07T23:26:30.495Z,50.77
2024-01-07T23:28:58.369Z,51.32
2024-01-07T23:31:26.331Z,51.66
2024-01-07T23:33:54.307Z,50.76
2024-01-07T23:36:23.527Z,51.17
2024-01-07T23:38:51.438Z,51.54
2024-01-07T23:41:19.268Z,51.71
2024-01-07T23:43:47.106Z,50.46
2024-01-07T23:46:14.916Z,51.10
2024-01-07T23:48:42.778Z,50.64
2024-01-07T23:51:10.630Z,50.11
2024-01-07T23:53:39.804Z,50.56
2024-01-07T23:56:07.991Z,51.06
2024-01-07T23:58:35.783Z,50.76
